Time;durP1;ratioP1;P1;durP2;ratioP2;P2;SDS_P1;SDS_P2;PMS_P1;PMS_P2;Temp;Humidity;BMP_temperature;BMP_pressure;BME280_temperature;BME280_humidity;BME280_pressure;Samples;Min_cycle;Max_cycle;Signal;HPM_P1;HPM_P2
2023/05/13 05:20:43;;;;;;;6.90;4.45;;;;;;;8.22;96.41;96643.84;2090952;27;21036;-57
2023/05/13 05:21:45;;;;;;;6.32;4.03;;;;;;;8.34;96.31;96653.81;2075374;28;20242;-58
2023/05/13 07:40:46;;;;;;;6.85;3.97;;;;;;;11.31;82.34;96700.91;2082541;28;20565;-57
2023/05/13 07:42:55;;;;;;;8.73;4.07;;;;;;;11.11;81.64;96653.88;2084401;28;20569;-56
2023/05/13 08:25:30;;;;;;;7.10;4.22;;;;;;;11.56;81.24;96711.91;2101113;27;20545;-57
2023/05/13 08:27:38;;;;;;;6.07;4.30;;;;;;;11.79;80.71;96709.94;2089641;28;21077;-57
2023/05/13 08:28:40;;;;;;;5.25;3.60;;;;;;;11.86;79.66;96715.72;2088640;28;20215;-57
2023/05/13 08:30:47;;;;;;;6.25;4.00;;;;;;;11.75;80.87;96706.63;2084678;28;20580;-57
2023/05/13 08:31:49;;;;;;;5.30;3.90;;;;;;;11.79;80.96;96717.81;2076504;28;20218;-57
2023/05/13 08:32:50;;;;;;;7.38;3.30;;;;;;;11.93;80.39;96718.00;2074421;28;20205;-58
2023/05/13 08:34:56;;;;;;;6.63;3.40;;;;;;;12.00;79.77;96720.31;2091050;28;21045;-57
2023/05/13 08:37:15;;;;;;;13.98;3.95;;;;;;;12.03;79.44;96713.16;2092824;28;20542;-57
2023/05/13 08:45:18;;;;;;;10.10;2.95;;;;;;;12.03;78.61;96714.94;2084422;28;20556;-57
2023/05/13 08:47:55;;;;;;;13.38;4.35;;;;;;;11.33;79.78;96722.63;2100488;27;20557;-57
2023/05/13 08:57:32;;;;;;;6.65;3.53;;;;;;;12.23;77.83;96711.34;2083087;28;20586;-57
2023/05/13 08:59:47;;;;;;;8.50;3.72;;;;;;;12.15;78.06;96714.34;2098751;27;20552;-57
2023/05/13 09:00:49;;;;;;;6.28;3.75;;;;;;;12.36;78.03;96724.66;2099129;28;20202;-57
2023/05/13 09:01:51;;;;;;;8.93;4.35;;;;;;;12.40;77.80;96716.56;2086377;28;20217;-57
2023/05/13 09:04:03;;;;;;;5.88;4.00;;;;;;;12.41;77.30;96722.66;2098798;27;20545;-57
2023/05/13 09:05:06;;;;;;;5.10;3.25;;;;;;;12.36;76.83;96719.41;2098329;28;20191;-58
2023/05/13 09:06:07;;;;;;;7.45;3.30;;;;;;;12.39;76.40;96722.72;2098368;28;20195;-57
2023/05/13 09:08:24;;;;;;;5.30;3.28;;;;;;;12.52;76.38;96720.34;2084684;28;20582;-57
2023/05/13 09:10:50;;;;;;;4.93;3.75;;;;;;;12.36;77.46;96716.81;2085684;28;20556;-57
2023/05/13 09:13:01;;;;;;;12.05;3.88;;;;;;;12.42;77.35;96724.34;2082252;28;20553;-57
2023/05/13 09:25:54;;;;;;;7.25;3.90;;;;;;;12.53;77.09;96731.66;2089693;27;20560;-57
2023/05/13 09:28:14;;;;;;;6.25;3.60;;;;;;;12.63;77.05;96732.03;2091380;28;20580;-57
2023/05/13 09:30:34;;;;;;;6.38;3.88;;;;;;;12.53;76.96;96723.78;2090629;28;20576;-59
2023/05/13 09:33:08;;;;;;;5.35;3.33;;;;;;;12.76;76.36;96722.63;2095042;27;20567;-57
2023/05/13 09:35:35;;;;;;;6.95;3.55;;;;;;;12.73;77.32;96731.50;2083249;28;20563;-57
2023/05/13 09:37:59;;;;;;;7.25;4.10;;;;;;;12.58;77.78;96708.69;2083761;28;20554;-57
2023/05/13 09:40:25;;;;;;;7.05;4.18;;;;;;;12.64;77.44;96726.69;2084048;28;21247;-57
2023/05/13 10:00:40;;;;;;;6.15;3.65;;;;;;;12.26;78.31;96750.44;2089563;28;21046;-57
2023/05/13 10:02:56;;;;;;;7.90;4.13;;;;;;;12.37;77.98;96750.75;2099551;27;20549;-56
2023/05/13 10:05:21;;;;;;;8.65;3.47;;;;;;;12.55;78.28;96750.75;2101269;27;20546;-56
2023/05/13 10:06:25;;;;;;;11.45;4.25;;;;;;;12.73;77.90;96751.59;2091783;28;20191;-56
2023/05/13 10:08:39;;;;;;;12.43;3.70;;;;;;;12.79;77.95;96748.66;2083088;28;20912;-56
2023/05/13 10:09:45;;;;;;;6.10;4.40;;;;;;;12.97;77.14;96748.63;2079588;28;20208;-56
2023/05/13 10:10:48;;;;;;;7.60;3.97;;;;;;;12.92;77.03;96742.78;2077417;28;20197;-57
2023/05/13 10:11:50;;;;;;;5.72;3.35;;;;;;;13.11;76.50;96748.72;2073725;28;20228;-57
2023/05/13 10:12:52;;;;;;;5.28;3.60;;;;;;;13.14;76.11;96748.56;2072621;28;20241;-57
2023/05/13 10:14:02;;;;;;;5.28;3.15;;;;;;;13.23;75.58;96742.00;2071143;28;20202;-57
2023/05/13 10:15:04;;;;;;;8.40;4.15;;;;;;;13.20;75.04;96744.78;2069924;28;20600;-57
2023/05/13 10:16:06;;;;;;;7.60;3.67;;;;;;;13.28;74.99;96754.84;2068989;28;20204;-57
2023/05/13 10:17:08;;;;;;;7.53;3.80;;;;;;;13.38;75.30;96751.69;2067236;28;20290;-57
2023/05/13 10:18:10;;;;;;;4.90;3.53;;;;;;;13.43;75.03;96743.53;2069398;28;20194;-57
2023/05/13 10:19:12;;;;;;;7.65;4.30;;;;;;;13.20;75.64;96750.00;2070518;28;20229;-57
2023/05/13 10:20:14;;;;;;;4.63;3.50;;;;;;;13.39;75.10;96752.53;2071634;28;20229;-57
2023/05/13 10:21:15;;;;;;;4.97;3.75;;;;;;;13.44;74.84;96745.25;2067935;28;20248;-57
2023/05/13 10:22:28;;;;;;;4.38;3.20;;;;;;;13.48;74.94;96745.94;2069537;28;20290;-56
2023/05/13 10:23:31;;;;;;;5.57;3.78;;;;;;;13.34;74.99;96741.41;2071042;28;20210;-57
2023/05/13 10:24:33;;;;;;;4.82;3.45;;;;;;;13.25;75.74;96744.53;2071043;28;20557;-57
2023/05/13 10:25:40;;;;;;;6.07;3.63;;;;;;;13.25;75.97;96753.22;2070439;28;20236;-57
2023/05/13 10:26:43;;;;;;;3.80;3.40;;;;;;;13.36;75.56;96745.63;2070950;28;20707;-57
2023/05/13 10:27:44;;;;;;;6.75;3.70;;;;;;;13.44;74.62;96745.25;2069807;28;20206;-57
2023/05/13 10:28:47;;;;;;;8.73;3.95;;;;;;;13.49;74.90;96745.00;2062740;28;20966;-58
2023/05/13 10:29:53;;;;;;;5.47;2.95;;;;;;;13.37;75.43;96750.00;2064017;28;20237;-57
2023/05/13 10:30:54;;;;;;;4.13;2.92;;;;;;;13.37;74.82;96734.25;2071041;28;20474;-57
2023/05/13 10:31:56;;;;;;;5.78;3.70;;;;;;;13.29;75.41;96743.44;2072376;28;20225;-57
2023/05/13 10:32:58;;;;;;;7.80;4.30;;;;;;;13.39;75.08;96742.91;2071080;28;20284;-57
2023/05/13 10:34:00;;;;;;;6.20;3.47;;;;;;;13.46;74.80;96742.53;2068945;28;20224;-57
2023/05/13 10:35:08;;;;;;;7.57;3.17;;;;;;;13.59;74.24;96740.94;2077088;28;20667;-57
2023/05/13 10:36:54;;;;;;;7.10;3.85;;;;;;;13.65;73.91;96750.22;2075815;28;20201;-57
2023/05/13 10:38:04;;;;;;;7.40;3.90;;;;;;;13.64;74.40;96745.94;2062893;28;20948;-57
2023/05/13 10:39:16;;;;;;;6.43;4.00;;;;;;;13.71;74.40;96744.66;2063716;28;20198;-57
2023/05/13 10:40:36;;;;;;;6.50;3.75;;;;;;;13.85;73.88;96744.75;2070096;28;20228;-57
2023/05/13 10:41:53;;;;;;;4.93;3.35;;;;;;;14.10;73.05;96747.75;2071657;28;20220;-57
2023/05/13 10:43:21;;;;;;;7.72;3.35;;;;;;;13.92;73.12;96752.28;2072654;28;20204;-57
2023/05/13 10:44:23;;;;;;;5.68;3.22;;;;;;;14.21;72.75;96743.56;2073106;28;20256;-58
2023/05/13 10:45:25;;;;;;;9.18;3.33;;;;;;;14.01;73.12;96747.31;2066815;28;20683;-57
2023/05/13 10:46:26;;;;;;;12.20;3.83;;;;;;;14.17;73.46;96751.69;2069777;28;20532;-57
2023/05/13 10:47:32;;;;;;;11.68;3.60;;;;;;;14.34;73.56;96754.19;2062236;28;20198;-57
2023/05/13 10:48:48;;;;;;;5.03;3.28;;;;;;;14.53;73.22;96750.50;2061697;28;20234;-57
2023/05/13 10:49:53;;;;;;;5.03;3.53;;;;;;;14.66;72.50;96746.22;2068444;28;20208;-58
2023/05/13 10:51:02;;;;;;;10.48;3.72;;;;;;;14.61;71.86;96750.06;2055588;28;20305;-57
2023/05/13 10:52:12;;;;;;;7.55;3.50;;;;;;;14.54;71.53;96746.94;2056908;28;20310;-57
2023/05/13 10:53:20;;;;;;;4.80;3.22;;;;;;;14.78;70.21;96741.19;2069837;28;20288;-57
2023/05/13 10:54:23;;;;;;;6.55;3.80;;;;;;;15.01;70.44;96752.97;2069683;28;20746;-57
2023/05/13 10:55:25;;;;;;;5.35;3.00;;;;;;;14.69;70.93;96750.50;2070194;28;20202;-57
2023/05/13 10:56:27;;;;;;;4.10;2.55;;;;;;;14.67;70.68;96745.31;2068719;28;20233;-56
2023/05/13 10:57:35;;;;;;;3.92;2.90;;;;;;;14.71;70.85;96750.41;2070449;28;20257;-57
2023/05/13 10:58:37;;;;;;;4.70;3.35;;;;;;;14.86;69.77;96741.56;2072006;28;20194;-58
2023/05/13 11:00:12;;;;;;;5.15;3.10;;;;;;;15.02;69.73;96749.41;2071091;28;20205;-56
2023/05/13 11:01:18;;;;;;;8.43;3.60;;;;;;;15.08;70.15;96756.06;2068652;28;20193;-57
2023/05/13 11:02:21;;;;;;;2.97;2.35;;;;;;;15.05;70.09;96748.34;2071322;28;20204;-57
2023/05/13 11:03:28;;;;;;;5.55;3.47;;;;;;;15.00;69.40;96756.53;2069927;28;20229;-56
2023/05/13 11:04:30;;;;;;;12.30;3.53;;;;;;;15.00;69.51;96749.47;2070731;28;20685;-57
2023/05/13 11:05:31;;;;;;;9.50;3.20;;;;;;;15.02;69.73;96755.50;2069926;28;20696;-57
2023/05/13 11:06:41;;;;;;;4.53;2.90;;;;;;;15.04;69.84;96754.56;2065262;28;20290;-57
2023/05/13 11:07:54;;;;;;;6.60;3.10;;;;;;;14.90;70.10;96750.97;2057913;28;20195;-57
2023/05/13 11:08:55;;;;;;;5.03;2.88;;;;;;;14.74;70.40;96758.94;2060324;28;20671;-57
2023/05/13 11:09:58;;;;;;;4.50;2.88;;;;;;;14.83;70.21;96753.13;2061592;28;20281;-57
2023/05/13 11:11:00;;;;;;;6.55;3.65;;;;;;;14.76;70.92;96756.22;2060191;28;20269;-57
2023/05/13 11:12:02;;;;;;;4.90;3.20;;;;;;;14.86;70.94;96750.31;2060865;28;20890;-57
2023/05/13 11:13:13;;;;;;;4.30;3.42;;;;;;;14.91;71.05;96757.91;2059973;28;20651;-57
2023/05/13 11:14:15;;;;;;;7.60;3.17;;;;;;;14.91;71.10;96749.19;2060976;28;20724;-57
2023/05/13 11:15:20;;;;;;;6.68;3.85;;;;;;;14.81;70.46;96751.53;2059365;28;20202;-57
2023/05/13 11:16:22;;;;;;;4.88;3.17;;;;;;;14.82;71.49;96746.16;2061664;28;20195;-57
2023/05/13 11:17:24;;;;;;;5.63;3.17;;;;;;;14.75;70.96;96757.16;2062000;28;20191;-57
2023/05/13 11:18:30;;;;;;;6.10;3.03;;;;;;;14.69;71.23;96751.31;2060427;28;20191;-57
2023/05/13 11:19:35;;;;;;;6.30;3.53;;;;;;;14.70;71.89;96757.41;2063254;28;20248;-57
2023/05/13 11:20:37;;;;;;;5.18;3.25;;;;;;;14.36;73.25;96748.88;2054959;28;20249;-57
2023/05/13 11:21:56;;;;;;;5.80;3.67;;;;;;;14.40;75.31;96757.41;2059662;28;20224;-57
2023/05/13 11:22:57;;;;;;;6.70;3.42;;;;;;;14.10;77.01;96748.59;2057874;28;20234;-57
2023/05/13 11:24:04;;;;;;;8.07;3.92;;;;;;;14.23;77.78;96759.22;2056748;28;20199;-57
2023/05/13 11:25:08;;;;;;;7.65;3.80;;;;;;;14.26;76.95;96760.84;2056231;28;20323;-57
2023/05/13 11:26:15;;;;;;;8.82;4.50;;;;;;;14.26;77.99;96761.69;2055576;28;20200;-57
2023/05/13 11:27:19;;;;;;;5.97;3.97;;;;;;;14.24;78.51;96762.72;2055129;28;20196;-57
2023/05/13 11:28:52;;;;;;;10.68;4.38;;;;;;;14.17;79.81;96762.19;2054389;28;20199;-57
2023/05/13 11:29:55;;;;;;;7.32;4.90;;;;;;;14.22;79.63;96760.19;2058850;28;20195;-56
2023/05/13 11:31:14;;;;;;;7.72;4.47;;;;;;;14.07;80.18;96769.78;2056974;28;20203;-57
2023/05/13 11:32:44;;;;;;;6.40;4.90;;;;;;;14.06;80.54;96757.56;2057627;28;20215;-57
2023/05/13 11:34:06;;;;;;;7.38;4.10;;;;;;;14.07;79.91;96758.41;2054734;28;20698;-57
2023/05/13 11:35:07;;;;;;;7.53;4.05;;;;;;;13.91;80.24;96761.06;2054586;28;20858;-57
2023/05/13 11:36:08;;;;;;;4.90;4.13;;;;;;;13.77;80.80;96760.06;2056041;28;20195;-56
2023/05/13 11:37:10;;;;;;;5.50;3.80;;;;;;;13.86;78.80;96764.81;2059715;28;20257;-57
2023/05/13 11:38:23;;;;;;;7.85;3.80;;;;;;;13.74;79.26;96756.75;2057977;28;20569;-57
2023/05/13 11:39:27;;;;;;;8.98;3.90;;;;;;;13.80;79.60;96761.66;2048861;28;20243;-58
2023/05/13 11:40:31;;;;;;;6.30;3.95;;;;;;;13.85;79.37;96763.13;2048017;28;20203;-57
2023/05/13 11:41:33;;;;;;;4.60;3.80;;;;;;;13.90;80.23;96764.63;2055492;28;20245;-57
2023/05/13 11:42:35;;;;;;;5.80;4.43;;;;;;;13.91;79.94;96751.41;2058930;28;20206;-57
2023/05/13 11:43:38;;;;;;;6.93;4.15;;;;;;;13.97;79.24;96760.75;2054874;28;20207;-57
2023/05/13 11:44:45;;;;;;;7.30;4.45;;;;;;;13.75;76.57;96755.81;2053858;28;20218;-57
2023/05/13 11:45:47;;;;;;;8.35;4.03;;;;;;;13.94;77.89;96767.00;2056140;28;20725;-57
2023/05/13 11:46:50;;;;;;;5.90;3.35;;;;;;;14.04;78.26;96751.56;2055993;28;20211;-57
2023/05/13 11:47:52;;;;;;;7.50;4.07;;;;;;;14.22;77.95;96749.69;2055669;28;20565;-57
2023/05/13 11:48:54;;;;;;;6.15;4.15;;;;;;;14.13;77.33;96731.81;2054987;28;20681;-57
2023/05/13 11:49:57;;;;;;;8.63;4.40;;;;;;;14.32;78.27;96742.09;2056282;28;20577;-57
2023/05/13 11:50:59;;;;;;;5.18;3.67;;;;;;;14.54;78.67;96760.09;2056552;28;20203;-57
2023/05/13 11:52:11;;;;;;;5.43;3.60;;;;;;;14.51;77.31;96758.50;2054850;28;20233;-57
2023/05/13 11:53:18;;;;;;;6.90;3.97;;;;;;;14.25;76.75;96756.53;2056243;28;20353;-57
2023/05/13 11:54:20;;;;;;;5.30;3.70;;;;;;;14.10;77.89;96759.09;2056023;28;20203;-57
2023/05/13 11:55:32;;;;;;;5.50;4.10;;;;;;;14.27;78.02;96758.13;2054395;28;20293;-57
2023/05/13 11:56:34;;;;;;;6.22;4.40;;;;;;;14.37;78.04;96763.69;2056773;28;20234;-56
2023/05/13 11:57:35;;;;;;;113.85;76.72;;;;;;;14.58;78.18;96755.50;2056995;28;20211;-57
2023/05/13 11:58:37;;;;;;;58.83;34.20;;;;;;;14.39;77.28;96747.84;2057106;28;20199;-56
2023/05/13 11:59:39;;;;;;;20.67;13.38;;;;;;;14.51;76.22;96763.75;2056659;28;20222;-56
2023/05/13 12:00:48;;;;;;;6.63;4.43;;;;;;;14.56;75.71;96757.38;2054081;28;20223;-56
2023/05/13 12:02:00;;;;;;;12.65;7.30;;;;;;;14.75;76.30;96763.25;2053953;28;20222;-56
2023/05/13 12:03:11;;;;;;;5.95;4.60;;;;;;;15.13;75.53;96757.44;2055610;28;20199;-56
2023/05/13 12:04:13;;;;;;;5.50;4.20;;;;;;;14.67;76.34;96761.06;2052047;28;20196;-56
2023/05/13 12:05:15;;;;;;;5.38;4.18;;;;;;;15.28;72.98;96762.72;2051677;28;20199;-57
2023/05/13 12:06:17;;;;;;;8.15;4.22;;;;;;;15.60;73.01;96758.06;2056498;28;20194;-56
2023/05/13 12:07:25;;;;;;;6.28;3.90;;;;;;;15.96;71.49;96755.84;2056420;28;20218;-56
2023/05/13 12:08:27;;;;;;;7.70;3.85;;;;;;;16.00;70.73;96750.28;2055404;28;20227;-57
2023/05/13 12:09:28;;;;;;;7.30;3.63;;;;;;;16.25;70.69;96753.97;2056539;28;20207;-56
2023/05/13 12:10:30;;;;;;;5.63;3.97;;;;;;;14.81;72.05;96747.09;2057027;28;20203;-56
2023/05/13 12:11:32;;;;;;;5.82;3.70;;;;;;;14.60;75.74;96757.09;2055348;28;20226;-57
2023/05/13 12:12:37;;;;;;;5.47;3.55;;;;;;;15.32;73.89;96753.69;2055604;28;20233;-56
2023/05/13 12:13:40;;;;;;;6.63;3.47;;;;;;;15.61;72.28;96749.22;2057907;28;20214;-57
2023/05/13 12:14:46;;;;;;;5.47;3.55;;;;;;;15.32;73.06;96759.78;2056791;28;20199;-57
2023/05/13 12:15:48;;;;;;;4.78;3.45;;;;;;;15.66;71.86;96760.31;2055188;28;20187;-56
2023/05/13 12:16:50;;;;;;;5.57;3.90;;;;;;;15.58;73.48;96753.84;2059134;28;20223;-56
2023/05/13 12:17:52;;;;;;;4.63;3.63;;;;;;;15.67;71.92;96753.28;2059902;28;21021;-56
2023/05/13 12:19:06;;;;;;;7.82;3.95;;;;;;;15.70;70.78;96760.97;2056608;28;20207;-56
2023/05/13 12:20:11;;;;;;;4.53;3.40;;;;;;;15.89;71.29;96758.03;2054582;28;20266;-57
2023/05/13 12:21:14;;;;;;;4.97;3.50;;;;;;;16.06;70.61;96751.69;2054975;28;20199;-56
2023/05/13 12:22:20;;;;;;;5.20;3.63;;;;;;;16.03;70.12;96758.94;2052271;28;20654;-56
2023/05/13 12:23:22;;;;;;;4.60;3.42;;;;;;;15.79;69.70;96757.72;2055146;28;20195;-56
2023/05/13 12:24:23;;;;;;;5.75;3.50;;;;;;;15.53;71.19;96754.16;2055301;28;20670;-56
2023/05/13 12:25:38;;;;;;;5.40;3.42;;;;;;;15.87;71.10;96752.03;2054175;28;20195;-57
2023/05/13 12:26:40;;;;;;;5.93;3.85;;;;;;;15.52;68.28;96748.03;2054902;28;20686;-56
2023/05/13 12:27:42;;;;;;;5.30;3.75;;;;;;;15.30;70.53;96750.31;2053432;28;20560;-56
2023/05/13 12:28:43;;;;;;;4.90;3.28;;;;;;;15.54;69.88;96747.94;2053547;28;20579;-57
2023/05/13 12:29:45;;;;;;;4.50;2.80;;;;;;;15.86;70.01;96738.94;2052031;28;20791;-57
2023/05/13 12:30:54;;;;;;;9.68;2.75;;;;;;;15.88;70.10;96748.44;2053034;28;20242;-57
2023/05/13 12:32:04;;;;;;;4.78;2.15;;;;;;;15.92;68.97;96749.09;2052295;28;20434;-56
2023/05/13 12:33:20;;;;;;;3.83;2.90;;;;;;;15.69;69.51;96748.72;2056023;28;20199;-56
2023/05/13 12:34:32;;;;;;;4.45;2.50;;;;;;;16.11;68.08;96744.31;2056185;28;20227;-57
2023/05/13 12:35:34;;;;;;;3.67;2.25;;;;;;;16.04;66.37;96739.56;2057681;28;20298;-56
2023/05/13 12:36:37;;;;;;;6.90;2.55;;;;;;;15.92;67.75;96751.72;2058112;28;20227;-56
2023/05/13 12:37:39;;;;;;;5.97;2.75;;;;;;;16.43;68.49;96749.25;2056079;28;20202;-57
2023/05/13 12:39:02;;;;;;;3.60;2.15;;;;;;;16.64;67.25;96752.22;2057847;28;20201;-57
2023/05/13 12:40:11;;;;;;;5.35;2.42;;;;;;;16.75;66.33;96742.78;2056030;28;20199;-57
2023/05/13 12:41:12;;;;;;;4.30;2.63;;;;;;;16.71;66.25;96751.81;2055234;28;20226;-56
2023/05/13 12:42:16;;;;;;;5.18;2.65;;;;;;;16.59;67.16;96746.41;2053852;28;20203;-56
2023/05/13 12:43:18;;;;;;;5.95;2.72;;;;;;;16.76;66.27;96734.75;2054665;28;20721;-56
2023/05/13 12:44:20;;;;;;;5.07;2.50;;;;;;;16.91;65.50;96748.72;2054506;28;20626;-56
2023/05/13 12:45:22;;;;;;;4.45;2.90;;;;;;;16.98;64.83;96741.22;2055153;28;20561;-57
2023/05/13 12:46:24;;;;;;;7.45;2.60;;;;;;;16.83;64.16;96745.72;2052296;28;20204;-56
2023/05/13 12:47:25;;;;;;;4.47;2.85;;;;;;;16.48;64.99;96743.66;2053031;28;20286;-56
2023/05/13 12:48:27;;;;;;;4.60;3.22;;;;;;;16.66;63.58;96733.69;2054348;28;20203;-56
2023/05/13 12:49:28;;;;;;;4.90;2.92;;;;;;;16.91;63.88;96746.06;2054690;28;20207;-57
2023/05/13 12:50:30;;;;;;;4.80;3.05;;;;;;;16.87;64.34;96743.72;2054377;28;20195;-56
2023/05/13 12:51:32;;;;;;;3.00;2.22;;;;;;;16.57;65.28;96747.47;2052129;28;20231;-56
2023/05/13 12:52:34;;;;;;;4.70;2.60;;;;;;;16.86;64.59;96749.94;2054943;28;20278;-55
2023/05/13 12:53:35;;;;;;;4.32;2.50;;;;;;;17.08;63.84;96747.53;2055432;28;20651;-57
2023/05/13 12:54:37;;;;;;;3.75;2.40;;;;;;;17.24;62.86;96746.47;2053577;28;20208;-56
2023/05/13 12:55:38;;;;;;;4.47;2.40;;;;;;;17.55;61.88;96739.03;2054564;28;20199;-57
2023/05/13 12:56:40;;;;;;;3.17;2.22;;;;;;;17.53;62.20;96738.28;2052854;28;20230;-57
2023/05/13 12:57:42;;;;;;;3.15;2.28;;;;;;;17.51;63.11;96737.53;2054876;28;20258;-56
2023/05/13 12:58:43;;;;;;;4.03;2.50;;;;;;;17.97;61.91;96741.31;2053399;28;20203;-57
2023/05/13 12:59:45;;;;;;;667.35;516.03;;;;;;;18.20;60.52;96744.94;2054148;28;20199;-58
2023/05/13 13:00:47;;;;;;;11.80;8.20;;;;;;;18.54;60.59;96734.50;2053984;28;20542;-57
2023/05/13 13:01:48;;;;;;;36.08;24.35;;;;;;;18.53;60.14;96740.75;2052454;28;20321;-57
2023/05/13 13:02:52;;;;;;;122.53;74.28;;;;;;;18.40;60.59;96740.81;2053405;28;20287;-57
2023/05/13 13:03:55;;;;;;;7.55;5.15;;;;;;;18.54;59.48;96743.25;2058017;28;20195;-57
2023/05/13 13:04:57;;;;;;;3.55;2.15;;;;;;;18.25;60.55;96729.59;2056189;28;20260;-57
2023/05/13 13:05:58;;;;;;;3.20;2.15;;;;;;;17.91;60.60;96730.22;2053954;28;20208;-57
2023/05/13 13:07:00;;;;;;;4.05;2.20;;;;;;;17.61;61.42;96730.66;2052143;28;20280;-57
2023/05/13 13:08:03;;;;;;;5.97;2.50;;;;;;;17.51;62.30;96734.91;2053948;28;20227;-57
2023/05/13 13:09:06;;;;;;;7.47;2.65;;;;;;;17.19;62.23;96732.75;2057010;28;20281;-57
2023/05/13 13:10:08;;;;;;;6.32;2.55;;;;;;;16.72;62.13;96746.47;2052097;28;20246;-57
2023/05/13 13:11:13;;;;;;;3.80;2.30;;;;;;;16.48;64.24;96739.25;2052762;28;20286;-57
2023/05/13 13:12:15;;;;;;;5.60;2.97;;;;;;;15.85;64.75;96737.28;2054082;28;20270;-57
2023/05/13 13:13:16;;;;;;;4.20;2.80;;;;;;;15.09;66.05;96739.34;2054445;28;20681;-57
2023/05/13 13:14:18;;;;;;;4.40;3.10;;;;;;;15.41;66.47;96739.94;2054702;28;20203;-57
2023/05/13 13:15:19;;;;;;;3.08;2.00;;;;;;;15.59;67.51;96745.00;2054400;28;20199;-57
2023/05/13 13:16:21;;;;;;;3.22;2.15;;;;;;;15.63;66.61;96747.34;2058592;28;20199;-57
2023/05/13 13:17:23;;;;;;;3.35;2.28;;;;;;;15.73;66.64;96749.41;2056322;28;21255;-56
2023/05/13 13:18:25;;;;;;;3.00;2.25;;;;;;;15.77;66.46;96741.22;2055260;28;20203;-57
2023/05/13 13:19:26;;;;;;;8.55;2.45;;;;;;;15.77;66.56;96740.34;2055440;28;20195;-57
2023/05/13 13:20:28;;;;;;;6.90;2.53;;;;;;;15.83;66.55;96743.50;2053617;28;20973;-57
2023/05/13 13:21:30;;;;;;;4.32;2.55;;;;;;;15.93;66.57;96742.88;2055482;28;20206;-57
2023/05/13 13:22:33;;;;;;;4.05;2.53;;;;;;;16.04;65.62;96737.75;2056882;28;20459;-57
2023/05/13 13:23:35;;;;;;;3.00;2.15;;;;;;;15.73;66.16;96742.34;2055217;28;20295;-57
2023/05/13 13:24:36;;;;;;;3.67;2.55;;;;;;;15.43;65.19;96732.81;2055818;28;20303;-57
2023/05/13 13:25:37;;;;;;;5.00;3.05;;;;;;;15.63;66.20;96747.34;2053505;28;20596;-56
2023/05/13 13:26:39;;;;;;;3.28;2.20;;;;;;;15.92;65.47;96743.81;2056657;28;20249;-57
2023/05/13 13:27:41;;;;;;;3.47;1.98;;;;;;;16.14;64.58;96738.00;2056165;28;20660;-57
2023/05/13 13:28:42;;;;;;;3.83;2.53;;;;;;;16.11;64.55;96738.19;2059333;28;20277;-56
2023/05/13 13:29:43;;;;;;;6.47;2.70;;;;;;;16.23;63.31;96726.03;2059672;28;20222;-57
2023/05/13 13:30:45;;;;;;;2.90;1.90;;;;;;;16.19;63.75;96732.41;2056419;28;20207;-57
2023/05/13 13:31:47;;;;;;;3.63;2.42;;;;;;;16.03;64.55;96725.53;2052247;28;20238;-57
2023/05/13 13:32:49;;;;;;;4.50;2.53;;;;;;;15.76;64.45;96726.34;2055854;28;20207;-57
2023/05/13 13:33:52;;;;;;;5.90;2.42;;;;;;;15.79;64.88;96725.31;2054761;28;20784;-57
2023/05/13 13:34:54;;;;;;;4.05;2.33;;;;;;;15.89;65.01;96722.97;2055627;28;20578;-57
2023/05/13 13:35:55;;;;;;;4.70;2.38;;;;;;;15.93;65.16;96725.28;2058154;28;20234;-56
2023/05/13 13:36:57;;;;;;;3.83;2.47;;;;;;;16.02;65.10;96718.56;2058561;28;20265;-56
2023/05/13 13:37:58;;;;;;;3.47;2.60;;;;;;;15.42;65.27;96712.69;2055128;28;20202;-57
2023/05/13 13:39:00;;;;;;;4.53;2.78;;;;;;;15.65;65.46;96720.94;2054331;28;20602;-56
2023/05/13 13:40:01;;;;;;;3.20;2.40;;;;;;;15.30;66.35;96718.72;2055044;28;20195;-57
2023/05/13 13:41:03;;;;;;;5.35;2.40;;;;;;;15.35;65.53;96721.94;2055711;28;20192;-57
2023/05/13 13:42:04;;;;;;;9.55;3.42;;;;;;;15.59;65.82;96716.91;2055701;28;20258;-58
2023/05/13 13:43:07;;;;;;;3.53;2.47;;;;;;;15.91;65.51;96719.28;2055383;28;20249;-58
2023/05/13 13:44:08;;;;;;;5.50;3.10;;;;;;;15.65;64.89;96715.66;2054638;28;20234;-58
2023/05/13 13:45:11;;;;;;;4.45;2.80;;;;;;;15.22;66.50;96715.75;2054934;28;20226;-58
2023/05/13 13:46:12;;;;;;;6.35;3.30;;;;;;;14.53;67.95;96708.47;2055192;28;20650;-58
2023/05/13 13:47:14;;;;;;;5.13;3.15;;;;;;;14.81;67.90;96712.94;2057312;28;20199;-58
2023/05/13 13:48:15;;;;;;;4.50;3.25;;;;;;;14.82;68.00;96717.25;2057116;28;20298;-58
2023/05/13 13:49:18;;;;;;;4.47;3.20;;;;;;;14.87;66.54;96711.72;2054809;28;20195;-58
2023/05/13 13:50:25;;;;;;;5.55;3.80;;;;;;;14.05;69.29;96711.25;2055387;28;20215;-58
2023/05/13 13:51:26;;;;;;;5.97;3.53;;;;;;;13.52;70.63;96701.09;2055065;28;20203;-58
2023/05/13 13:52:27;;;;;;;7.32;4.20;;;;;;;13.66;71.09;96709.94;2057946;28;20213;-58
2023/05/13 13:53:29;;;;;;;5.50;3.42;;;;;;;14.50;69.40;96712.13;2054192;28;20230;-58
2023/05/13 13:54:30;;;;;;;6.90;3.20;;;;;;;14.77;68.84;96705.34;2053686;28;20248;-58
2023/05/13 13:55:32;;;;;;;5.30;3.55;;;;;;;15.01;68.39;96711.72;2057992;28;20305;-58
2023/05/13 13:56:37;;;;;;;8.05;3.97;;;;;;;15.26;66.33;96704.94;2056482;28;20222;-58
2023/05/13 13:57:39;;;;;;;7.70;4.70;;;;;;;15.54;66.92;96716.38;2056245;28;20208;-58
2023/05/13 13:58:40;;;;;;;6.22;3.83;;;;;;;15.59;66.37;96716.06;2055083;28;20245;-57
2023/05/13 13:59:42;;;;;;;6.38;4.15;;;;;;;15.17;66.56;96711.63;2054726;28;20669;-58
2023/05/13 14:00:43;;;;;;;5.28;3.58;;;;;;;14.64;67.99;96706.06;2056164;28;20202;-57
2023/05/13 14:01:45;;;;;;;4.47;3.28;;;;;;;14.64;68.58;96713.97;2055666;28;20227;-58
2023/05/13 14:02:47;;;;;;;4.28;3.20;;;;;;;14.14;69.63;96710.72;2055822;28;20194;-57
2023/05/13 14:03:49;;;;;;;4.38;3.63;;;;;;;14.69;69.26;96719.78;2054348;28;20238;-58
2023/05/13 14:04:51;;;;;;;8.40;3.78;;;;;;;15.07;68.96;96715.78;2054717;28;20207;-58
2023/05/13 14:05:54;;;;;;;5.10;3.25;;;;;;;15.25;67.91;96720.81;2054790;28;20195;-58
2023/05/13 14:06:55;;;;;;;4.60;3.05;;;;;;;14.91;67.95;96718.47;2054101;28;20230;-58
2023/05/13 14:07:57;;;;;;;4.60;3.65;;;;;;;14.21;68.87;96722.56;2054515;28;20250;-58
2023/05/13 14:08:58;;;;;;;5.18;3.30;;;;;;;13.80;70.32;96715.28;2054025;28;20225;-58
2023/05/13 14:10:00;;;;;;;4.93;3.55;;;;;;;14.33;70.32;96714.91;2056266;28;20503;-57
2023/05/13 14:11:02;;;;;;;6.00;3.70;;;;;;;14.18;69.74;96709.63;2054791;28;20203;-58
2023/05/13 14:12:04;;;;;;;5.07;3.28;;;;;;;14.08;69.78;96710.22;2055160;28;20276;-57
2023/05/13 14:13:05;;;;;;;6.78;3.80;;;;;;;14.44;70.11;96715.13;2055344;28;20203;-58
2023/05/13 14:14:07;;;;;;;5.22;3.28;;;;;;;14.63;68.79;96708.78;2054112;28;20646;-57
2023/05/13 14:15:09;;;;;;;4.68;3.30;;;;;;;14.57;68.84;96709.13;2054343;28;20222;-57
2023/05/13 14:16:10;;;;;;;5.85;3.53;;;;;;;14.61;69.33;96711.47;2057220;28;20234;-58
2023/05/13 14:17:11;;;;;;;4.25;2.92;;;;;;;14.49;69.06;96714.84;2057444;28;20226;-58
2023/05/13 14:18:14;;;;;;;3.97;3.05;;;;;;;14.62;68.83;96709.72;2057323;28;20299;-58
2023/05/13 14:19:17;;;;;;;11.80;2.85;;;;;;;14.57;70.06;96709.97;2056485;28;20198;-58
2023/05/13 14:20:20;;;;;;;6.30;3.22;;;;;;;14.96;69.43;96711.16;2058294;28;20281;-58
2023/05/13 14:21:22;;;;;;;6.55;2.90;;;;;;;15.24;67.98;96704.19;2053513;28;20558;-57
2023/05/13 14:22:24;;;;;;;5.60;2.90;;;;;;;15.21;67.13;96707.03;2057215;28;20693;-58
2023/05/13 14:23:25;;;;;;;6.18;3.67;;;;;;;14.93;67.48;96692.97;2054701;28;20199;-58
2023/05/13 14:24:27;;;;;;;5.57;3.85;;;;;;;14.89;68.64;96704.56;2057332;28;20231;-57
2023/05/13 14:25:28;;;;;;;4.22;3.10;;;;;;;15.26;67.81;96710.22;2059241;28;20206;-58
2023/05/13 14:26:30;;;;;;;7.20;3.40;;;;;;;16.30;65.42;96704.44;2055529;28;20697;-58
2023/05/13 14:27:35;;;;;;;5.45;3.25;;;;;;;16.34;63.37;96702.44;2054825;28;20294;-57
2023/05/13 14:28:36;;;;;;;6.75;4.30;;;;;;;15.86;65.46;96702.09;2054862;28;20831;-57
2023/05/13 14:29:38;;;;;;;5.20;3.22;;;;;;;15.96;64.42;96695.28;2053924;28;20209;-57
2023/05/13 14:30:39;;;;;;;4.90;3.25;;;;;;;16.61;63.83;96706.78;2056947;28;20899;-57
2023/05/13 14:31:40;;;;;;;5.38;2.88;;;;;;;15.83;64.50;96700.50;2056262;28;20227;-57
2023/05/13 14:32:46;;;;;;;7.28;3.40;;;;;;;15.89;64.50;96699.28;2055416;28;20825;-57